createdAt,value
2023-04-16T00:01:13.788Z,2.45
2023-04-16T00:03:41.020Z,2.42
2023-04-16T00:06:08.267Z,2.55
2023-04-16T00:08:35.951Z,3.22
2023-04-16T00:11:02.982Z,2.45
2023-04-16T00:13:30.156Z,2.75
2023-04-16T00:15:57.266Z,2.85
2023-04-16T00:18:24.396Z,3.22
2023-04-16T00:20:52.277Z,2.53
2023-04-16T00:23:19.881Z,2.63
2023-04-16T00:25:47.084Z,2.70
2023-04-16T00:28:14.140Z,2.58
2023-04-16T00:30:41.333Z,2.03
2023-04-16T00:33:08.484Z,1.95
2023-04-16T00:35:35.542Z,2.55
2023-04-16T00:38:02.724Z,2.33
2023-04-16T00:40:30.674Z,3.13
2023-04-16T00:42:57.759Z,2.50
2023-04-16T00:45:24.823Z,2.40
2023-04-16T00:47:53.347Z,1.90
2023-04-16T00:50:20.505Z,2.05
2023-04-16T00:52:50.869Z,1.90
2023-04-16T00:55:19.091Z,2.35
2023-04-16T00:57:46.292Z,1.90
2023-04-16T01:00:13.996Z,2.00
2023-04-16T01:02:41.188Z,2.53
2023-04-16T01:05:09.345Z,2.60
2023-04-16T01:07:36.859Z,2.47
2023-04-16T01:10:04.609Z,2.22
2023-04-16T01:12:32.586Z,2.60
2023-04-16T01:14:59.655Z,2.30
2023-04-16T01:17:26.642Z,1.92
2023-04-16T01:19:53.724Z,2.20
2023-04-16T01:22:21.611Z,2.05
2023-04-16T01:24:48.509Z,2.30
2023-04-16T01:27:15.724Z,2.10
2023-04-16T01:29:42.868Z,2.50
2023-04-16T01:32:10.521Z,2.40
2023-04-16T01:34:40.763Z,2.40
2023-04-16T01:37:10.253Z,2.42
2023-04-16T01:39:37.189Z,2.60
2023-04-16T01:42:04.257Z,2.28
2023-04-16T01:44:31.269Z,2.55
2023-04-16T01:46:58.373Z,2.45
2023-04-16T01:49:25.909Z,2.72
2023-04-16T01:51:53.029Z,3.42
2023-04-16T01:54:20.777Z,4.85
2023-04-16T01:56:47.832Z,5.25
2023-04-16T01:59:14.759Z,3.70
2023-04-16T02:01:42.601Z,4.00
2023-04-16T02:04:10.563Z,2.60
2023-04-16T02:06:38.253Z,2.70
2023-04-16T02:09:05.455Z,3.20
2023-04-16T02:11:32.765Z,5.22
2023-04-16T02:13:59.871Z,5.65
2023-04-16T02:16:26.842Z,3.25
2023-04-16T02:18:59.885Z,1.95
2023-04-16T02:21:30.267Z,2.50
2023-04-16T02:23:57.535Z,4.03
2023-04-16T02:26:29.234Z,3.90
2023-04-16T02:29:00.332Z,4.05
2023-04-16T02:31:35.404Z,3.13
2023-04-16T02:34:03.923Z,2.22
2023-04-16T02:36:31.799Z,2.55
2023-04-16T02:38:59.808Z,2.03
2023-04-16T02:41:26.962Z,1.65
2023-04-16T02:43:54.005Z,1.60
2023-04-16T02:46:21.119Z,2.00
2023-04-16T02:48:48.173Z,1.40
2023-04-16T02:51:15.352Z,1.50
2023-04-16T02:53:45.967Z,1.50
2023-04-16T02:56:13.564Z,1.52
2023-04-16T02:58:40.555Z,1.30
2023-04-16T03:01:07.628Z,1.70
2023-04-16T03:03:34.594Z,1.52
2023-04-16T03:06:01.583Z,1.45
2023-04-16T03:08:28.759Z,1.65
2023-04-16T03:10:55.795Z,1.27
2023-04-16T03:13:22.709Z,1.65
2023-04-16T03:15:50.111Z,1.58
2023-04-16T03:18:17.144Z,1.77
2023-04-16T03:20:44.173Z,1.40
2023-04-16T03:23:11.847Z,1.40
2023-04-16T03:25:40.601Z,1.55
2023-04-16T03:28:09.148Z,1.63
2023-04-16T03:30:37.982Z,1.20
2023-04-16T03:33:06.662Z,1.60
2023-04-16T03:35:33.578Z,1.40
2023-04-16T03:38:02.736Z,1.27
2023-04-16T03:40:29.793Z,1.25
2023-04-16T03:42:57.022Z,1.85
2023-04-16T03:45:24.014Z,1.80
2023-04-16T03:47:52.942Z,1.60
2023-04-16T03:50:22.968Z,1.60
2023-04-16T03:52:49.972Z,1.20
2023-04-16T03:55:17.970Z,1.15
2023-04-16T03:57:45.813Z,1.38
2023-04-16T04:00:15.755Z,1.95
2023-04-16T04:02:55.219Z,1.30
2023-04-16T04:05:23.105Z,1.20
2023-04-16T04:07:50.664Z,1.45
2023-04-16T04:10:17.684Z,1.50
2023-04-16T04:12:44.665Z,1.17
2023-04-16T04:15:12.726Z,1.70
2023-04-16T04:17:39.725Z,1.73
2023-04-16T04:20:07.231Z,1.55
2023-04-16T04:22:34.239Z,1.58
2023-04-16T04:25:02.057Z,1.48
2023-04-16T04:27:31.952Z,1.50
2023-04-16T04:29:58.914Z,1.67
2023-04-16T04:32:26.054Z,1.30
2023-04-16T04:34:53.402Z,1.40
2023-04-16T04:37:20.610Z,1.35
2023-04-16T04:39:47.598Z,1.75
2023-04-16T04:42:16.664Z,2.05
2023-04-16T04:44:43.609Z,1.67
2023-04-16T04:47:10.750Z,1.48
2023-04-16T04:49:37.854Z,1.38
2023-04-16T04:52:04.848Z,1.30
2023-04-16T04:54:32.849Z,1.52
2023-04-16T04:57:00.243Z,1.20
2023-04-16T04:59:29.098Z,1.40
2023-04-16T05:01:56.262Z,1.35
2023-04-16T05:04:23.251Z,1.40
2023-04-16T05:06:50.172Z,1.45
2023-04-16T05:09:17.505Z,1.70
2023-04-16T05:11:44.405Z,2.25
2023-04-16T05:14:11.462Z,1.98
2023-04-16T05:16:38.591Z,1.67
2023-04-16T05:19:05.624Z,1.35
2023-04-16T05:21:32.690Z,1.60
2023-04-16T05:24:00.047Z,1.70
2023-04-16T05:26:26.977Z,1.55
2023-04-16T05:28:53.922Z,1.58
2023-04-16T05:31:21.071Z,1.35
2023-04-16T05:33:48.007Z,1.63
2023-04-16T05:36:14.896Z,2.30
2023-04-16T05:38:41.826Z,2.08
2023-04-16T05:41:08.815Z,2.20
2023-04-16T05:43:35.727Z,2.40
2023-04-16T05:46:02.679Z,2.33
2023-04-16T05:48:29.702Z,3.65
2023-04-16T05:50:56.676Z,3.38
2023-04-16T05:53:23.966Z,3.00
2023-04-16T05:55:50.971Z,2.33
2023-04-16T05:58:17.915Z,1.75
2023-04-16T06:00:45.381Z,2.08
2023-04-16T06:05:39.659Z,2.10
2023-04-16T06:08:06.634Z,2.63
2023-04-16T06:10:33.620Z,2.50
2023-04-16T06:13:00.540Z,3.58
2023-04-16T06:15:27.467Z,3.15
2023-04-16T06:17:55.872Z,2.80
2023-04-16T06:20:22.865Z,3.13
2023-04-16T06:22:49.922Z,2.88
2023-04-16T06:25:18.214Z,2.25
2023-04-16T06:27:45.288Z,2.78
2023-04-16T06:30:16.110Z,2.72
2023-04-16T06:32:44.350Z,2.20
2023-04-16T06:35:11.598Z,2.50
2023-04-16T06:37:38.912Z,2.33
2023-04-16T06:40:06.372Z,2.65
2023-04-16T06:42:33.397Z,2.78
2023-04-16T06:45:00.662Z,2.63
2023-04-16T06:47:27.676Z,3.30
2023-04-16T06:49:54.615Z,3.20
2023-04-16T06:52:21.743Z,3.05
2023-04-16T06:54:49.004Z,3.22
2023-04-16T07:04:37.691Z,2.97
2023-04-16T17:42:18.335Z,5.35
2023-04-16T17:44:45.893Z,5.53
2023-04-16T17:47:13.008Z,5.07
2023-04-16T17:49:40.032Z,5.72
2023-04-16T17:52:07.174Z,4.90
2023-04-16T17:54:34.188Z,5.13
2023-04-16T17:57:02.210Z,6.30
2023-04-16T17:59:29.430Z,5.90
2023-04-16T18:01:56.908Z,5.43
2023-04-16T18:04:24.096Z,5.30
2023-04-16T18:06:51.164Z,5.43
2023-04-16T18:09:19.522Z,5.25
2023-04-16T18:11:46.648Z,6.50
2023-04-16T18:14:16.798Z,5.25
2023-04-16T18:16:46.028Z,4.90
2023-04-16T18:19:13.293Z,4.78
2023-04-16T18:21:40.691Z,5.00
2023-04-16T18:24:08.005Z,4.60
2023-04-16T18:26:36.165Z,4.00
2023-04-16T18:29:04.480Z,4.25
2023-04-16T18:31:31.757Z,3.88
2023-04-16T18:33:58.840Z,4.40
2023-04-16T18:36:26.986Z,4.82
2023-04-16T18:41:27.197Z,7.28
2023-04-16T18:43:54.682Z,5.65
2023-04-16T18:46:21.654Z,6.20
2023-04-16T18:48:48.746Z,4.93
2023-04-16T18:51:16.614Z,4.43
2023-04-16T18:53:45.584Z,4.57
2023-04-16T18:56:13.096Z,4.65
2023-04-16T18:58:40.046Z,4.50
2023-04-16T19:01:28.179Z,4.60
2023-04-16T19:03:56.395Z,5.47
2023-04-16T19:06:23.746Z,5.05
2023-04-16T19:08:55.710Z,4.70
2023-04-16T19:11:24.316Z,5.45
2023-04-16T19:13:51.374Z,6.43
2023-04-16T19:16:18.304Z,5.20
2023-04-16T19:18:45.361Z,5.63
2023-04-16T19:21:12.271Z,4.63
2023-04-16T19:23:39.314Z,4.88
2023-04-16T19:26:06.334Z,4.13
2023-04-16T19:28:33.443Z,5.32
2023-04-16T19:31:00.420Z,6.20
2023-04-16T19:33:27.433Z,4.68
2023-04-16T19:35:54.561Z,4.25
2023-04-16T19:38:21.534Z,4.70
2023-04-16T19:40:49.026Z,4.65
2023-04-16T19:43:15.976Z,4.50
2023-04-16T19:45:47.781Z,4.95
2023-04-16T19:48:15.039Z,4.78
2023-04-16T19:50:42.740Z,4.60
2023-04-16T19:53:10.616Z,4.88
2023-04-16T19:55:39.988Z,5.32
2023-04-16T19:58:07.928Z,4.63
2023-04-16T20:00:37.685Z,5.38
2023-04-16T20:03:06.301Z,4.60
2023-04-16T20:05:33.930Z,5.38
2023-04-16T20:08:01.092Z,5.72
2023-04-16T20:10:28.156Z,5.50
2023-04-16T20:12:55.069Z,5.32
2023-04-16T20:15:22.115Z,5.00
2023-04-16T20:17:49.177Z,5.85
2023-04-16T20:20:16.479Z,5.45
2023-04-16T20:22:44.569Z,6.45
2023-04-16T20:25:11.748Z,5.60
2023-04-16T20:27:38.992Z,5.43
2023-04-16T20:30:06.624Z,6.35
2023-04-16T20:32:33.667Z,6.28
2023-04-16T20:35:02.072Z,5.28
2023-04-16T20:37:32.493Z,5.90
2023-04-16T20:40:03.948Z,6.40
2023-04-16T20:42:32.280Z,6.30
2023-04-16T20:45:01.107Z,6.05
2023-04-16T20:47:28.220Z,5.57
2023-04-16T20:49:58.245Z,5.80
2023-04-16T20:52:25.461Z,6.03
2023-04-16T20:54:52.412Z,6.43
2023-04-16T20:57:19.504Z,6.78
2023-04-16T20:59:46.478Z,6.38
2023-04-16T21:02:13.794Z,6.65
2023-04-16T21:04:41.228Z,6.40
2023-04-16T21:07:08.255Z,6.20
2023-04-16T21:09:35.737Z,6.30
2023-04-16T21:12:02.721Z,5.88
2023-04-16T21:14:29.718Z,5.63
2023-04-16T21:16:56.727Z,6.63
2023-04-16T21:19:23.650Z,6.65
2023-04-16T21:21:50.731Z,7.22
2023-04-16T21:24:17.700Z,6.25
2023-04-16T21:26:44.643Z,6.35
2023-04-16T21:29:11.879Z,6.75
2023-04-16T21:31:38.953Z,6.28
2023-04-16T21:34:06.114Z,7.38
2023-04-16T21:36:34.081Z,7.15
2023-04-16T21:39:01.241Z,6.85
2023-04-16T21:41:28.197Z,7.00
2023-04-16T21:43:55.180Z,7.07
2023-04-16T21:46:22.691Z,6.97
2023-04-16T21:48:49.903Z,7.15
2023-04-16T21:51:18.165Z,6.75
2023-04-16T21:53:45.096Z,6.63
2023-04-16T21:56:12.098Z,5.90
2023-04-16T21:58:39.057Z,6.85
2023-04-16T22:01:07.700Z,6.53
2023-04-16T22:03:40.359Z,6.43
2023-04-16T22:06:07.894Z,7.30
2023-04-16T22:08:34.971Z,7.43
2023-04-16T22:11:03.195Z,7.35
2023-04-16T22:13:36.378Z,7.82
2023-04-16T22:16:03.892Z,7.18
2023-04-16T22:18:33.749Z,6.63
2023-04-16T22:21:01.008Z,7.45
2023-04-16T22:23:28.085Z,7.38
2023-04-16T22:25:56.105Z,6.72
2023-04-16T22:28:23.538Z,7.82
2023-04-16T22:30:51.251Z,7.05
2023-04-16T22:33:18.380Z,6.72
2023-04-16T22:35:46.201Z,6.90
2023-04-16T22:38:13.260Z,6.60
2023-04-16T22:40:40.481Z,7.00
2023-04-16T22:43:07.468Z,7.43
2023-04-16T22:45:34.719Z,7.32
2023-04-16T22:48:01.787Z,7.28
2023-04-16T22:50:31.390Z,7.32
2023-04-16T22:52:58.859Z,7.90
2023-04-16T22:55:26.053Z,6.85
2023-04-16T22:57:53.024Z,7.38
2023-04-16T23:00:20.084Z,8.00
2023-04-16T23:02:47.195Z,7.47
2023-04-16T23:05:14.225Z,7.57
2023-04-16T23:07:41.329Z,6.80
2023-04-16T23:10:08.798Z,7.07
2023-04-16T23:12:39.218Z,7.60
2023-04-16T23:15:07.015Z,8.10
2023-04-16T23:17:35.205Z,7.53
2023-04-16T23:20:02.825Z,7.03
2023-04-16T23:22:29.816Z,6.18
2023-04-16T23:24:57.111Z,6.75
2023-04-16T23:27:24.108Z,6.97
2023-04-16T23:29:51.141Z,6.55
2023-04-16T23:32:18.184Z,6.32
2023-04-16T23:34:45.332Z,6.18
2023-04-16T23:37:12.543Z,6.30
2023-04-16T23:39:39.478Z,6.60
2023-04-16T23:42:07.263Z,6.43
2023-04-16T23:44:34.225Z,6.40
2023-04-16T23:47:01.280Z,7.03
2023-04-16T23:49:28.553Z,6.50
2023-04-16T23:51:55.548Z,7.20
2023-04-16T23:54:22.679Z,6.50
2023-04-16T23:56:49.907Z,6.18
2023-04-16T23:59:16.946Z,7.80
